createdAt,value
2022-10-14T00:00:06.044Z,99.90
2022-10-14T00:02:42.606Z,51.70
2022-10-14T00:05:12.138Z,99.90
2022-10-14T00:07:41.237Z,1.00
2022-10-14T00:10:10.596Z,99.90
2022-10-14T00:12:39.785Z,1.00
2022-10-14T00:15:10.026Z,99.90
2022-10-14T00:17:40.584Z,99.90
2022-10-14T00:20:10.898Z,1.00
2022-10-14T00:22:39.673Z,1.00
2022-10-14T00:25:09.298Z,93.80
2022-10-14T00:27:39.070Z,99.90
2022-10-14T00:30:14.342Z,99.90
2022-10-14T00:32:44.689Z,99.90
2022-10-14T00:35:13.554Z,99.90
2022-10-14T00:37:42.372Z,99.90
2022-10-14T00:40:13.152Z,99.90
2022-10-14T00:42:42.032Z,99.90
2022-10-14T00:45:17.231Z,99.90
2022-10-14T00:47:49.101Z,99.90
2022-10-14T00:50:19.944Z,99.90
2022-10-14T00:52:49.467Z,99.90
2022-10-14T00:55:20.742Z,99.90
2022-10-14T00:57:49.645Z,99.90
2022-10-14T01:00:21.035Z,99.90
2022-10-14T01:02:51.494Z,99.90
2022-10-14T01:05:21.933Z,99.90
2022-10-14T01:08:07.022Z,99.90
2022-10-14T01:10:48.232Z,99.90
2022-10-14T01:13:28.253Z,99.90
2022-10-14T01:16:16.665Z,99.90
2022-10-14T01:19:11.359Z,99.90
2022-10-14T01:21:49.845Z,99.90
2022-10-14T01:24:44.587Z,99.90
2022-10-14T01:28:00.597Z,99.90
2022-10-14T01:30:34.209Z,99.90
2022-10-14T01:33:14.433Z,99.90
2022-10-14T01:36:02.866Z,99.90
2022-10-14T01:38:37.365Z,99.90
2022-10-14T01:41:18.696Z,99.90
2022-10-14T01:43:51.828Z,99.90
2022-10-14T01:46:27.211Z,99.90
2022-10-14T01:49:03.280Z,99.90
2022-10-14T01:51:39.604Z,99.90
2022-10-14T01:54:16.430Z,99.90
2022-10-14T01:56:49.551Z,99.90
2022-10-14T01:59:23.778Z,99.90
2022-10-14T02:01:53.968Z,99.90
2022-10-14T02:04:24.749Z,99.90
2022-10-14T02:07:06.196Z,99.90
2022-10-14T02:09:50.079Z,99.90
2022-10-14T02:12:39.143Z,99.90
2022-10-14T02:15:21.029Z,99.90
2022-10-14T02:18:01.950Z,99.90
2022-10-14T02:20:37.719Z,99.90
2022-10-14T02:23:17.123Z,99.90
2022-10-14T02:25:49.332Z,99.90
2022-10-14T02:28:22.105Z,99.90
2022-10-14T02:30:59.072Z,99.90
2022-10-14T02:33:38.901Z,99.90
2022-10-14T02:36:13.102Z,99.90
2022-10-14T02:38:44.479Z,99.90
2022-10-14T02:41:19.723Z,99.90
2022-10-14T02:43:49.071Z,99.90
2022-10-14T02:46:25.553Z,99.90
2022-10-14T02:48:56.029Z,99.90
2022-10-14T02:51:24.926Z,99.90
2022-10-14T02:53:53.751Z,99.90
2022-10-14T02:56:22.425Z,99.90
2022-10-14T02:58:51.245Z,99.90
2022-10-14T03:01:19.988Z,99.90
2022-10-14T03:03:49.055Z,99.90
2022-10-14T03:06:21.712Z,99.90
2022-10-14T03:08:51.153Z,99.90
2022-10-14T03:11:20.684Z,99.90
2022-10-14T03:13:49.460Z,99.90
2022-10-14T03:16:18.387Z,99.90
2022-10-14T03:18:47.520Z,99.90
2022-10-14T03:21:25.616Z,99.90
2022-10-14T03:23:55.502Z,99.90
2022-10-14T03:26:33.398Z,99.90
2022-10-14T03:29:02.299Z,99.90
2022-10-14T03:31:49.710Z,99.90
2022-10-14T03:34:34.326Z,99.90
2022-10-14T03:37:14.650Z,99.90
2022-10-14T03:39:49.478Z,99.90
2022-10-14T03:42:19.506Z,99.90
2022-10-14T03:44:50.317Z,99.90
2022-10-14T03:47:29.068Z,99.90
2022-10-14T03:49:57.944Z,99.90
2022-10-14T03:52:37.138Z,99.90
2022-10-14T03:55:16.325Z,99.90
2022-10-14T03:57:47.104Z,99.90
2022-10-14T04:00:17.460Z,99.90
2022-10-14T04:02:51.524Z,99.90
2022-10-14T04:05:37.267Z,99.90
2022-10-14T04:08:18.801Z,99.90
2022-10-14T04:11:10.755Z,99.90
2022-10-14T04:13:41.951Z,99.90
2022-10-14T04:16:13.364Z,99.90
2022-10-14T04:19:00.858Z,99.90
2022-10-14T04:21:29.616Z,99.90
2022-10-14T04:24:04.825Z,99.90
2022-10-14T04:26:44.798Z,99.90
2022-10-14T04:29:19.413Z,99.90
2022-10-14T04:31:56.538Z,99.90
2022-10-14T04:34:25.557Z,99.90
2022-10-14T04:36:55.592Z,99.90
2022-10-14T04:39:44.364Z,99.90
2022-10-14T04:42:14.233Z,99.90
2022-10-14T04:44:45.896Z,99.90
2022-10-14T04:47:16.098Z,99.90
2022-10-14T04:49:49.738Z,99.90
2022-10-14T04:52:22.307Z,99.90
2022-10-14T04:55:00.997Z,99.90
2022-10-14T04:57:36.720Z,99.90
2022-10-14T05:00:06.663Z,99.90
2022-10-14T05:03:01.423Z,99.90
2022-10-14T05:05:35.440Z,99.90
2022-10-14T05:08:08.064Z,99.90
2022-10-14T05:10:41.797Z,99.90
2022-10-14T05:13:17.259Z,99.90
2022-10-14T05:15:56.715Z,99.90
2022-10-14T05:18:26.011Z,99.90
2022-10-14T05:21:01.850Z,99.90
2022-10-14T05:23:49.403Z,99.90
2022-10-14T05:26:19.873Z,99.90
2022-10-14T05:28:50.220Z,99.90
2022-10-14T05:31:20.238Z,99.90
2022-10-14T05:34:00.315Z,99.90
2022-10-14T05:36:29.216Z,99.90
2022-10-14T05:38:58.995Z,99.90
2022-10-14T05:41:34.003Z,99.90
2022-10-14T05:44:03.854Z,99.90
2022-10-14T05:46:32.774Z,99.90
2022-10-14T05:49:05.972Z,99.90
2022-10-14T05:51:37.457Z,99.90
2022-10-14T05:54:13.325Z,99.90
2022-10-14T05:56:45.847Z,99.90
2022-10-14T05:59:15.762Z,99.90
2022-10-14T06:01:44.636Z,99.90
2022-10-14T06:04:20.081Z,99.90
2022-10-14T06:06:48.959Z,99.90
2022-10-14T06:09:18.403Z,99.90
2022-10-14T06:11:48.558Z,99.90
2022-10-14T06:14:17.341Z,99.90
2022-10-14T06:16:51.031Z,99.90
2022-10-14T06:19:20.044Z,99.90
2022-10-14T06:21:48.787Z,99.90
2022-10-14T06:24:17.809Z,99.90
2022-10-14T06:26:48.549Z,99.90
2022-10-14T06:29:18.265Z,99.90
2022-10-14T06:31:46.976Z,99.90
2022-10-14T06:34:15.748Z,99.90
2022-10-14T06:36:44.518Z,99.90
2022-10-14T06:39:13.275Z,99.90
2022-10-14T06:41:41.956Z,99.90
2022-10-14T06:44:21.870Z,99.90
2022-10-14T06:46:50.706Z,99.90
2022-10-14T06:49:19.731Z,99.90
2022-10-14T06:51:48.460Z,99.90
2022-10-14T06:54:18.498Z,99.90
2022-10-14T06:56:47.200Z,99.90
2022-10-14T06:59:16.010Z,99.90
2022-10-14T07:01:46.194Z,99.90
2022-10-14T07:04:15.079Z,99.90
2022-10-14T07:06:44.024Z,99.90
2022-10-14T07:09:12.744Z,99.90
2022-10-14T07:11:42.859Z,99.90
2022-10-14T07:14:11.988Z,99.90
2022-10-14T07:16:40.713Z,99.90
2022-10-14T07:19:10.899Z,99.90
2022-10-14T07:21:39.739Z,98.00
2022-10-14T07:24:09.765Z,42.10
2022-10-14T07:26:38.558Z,99.90
2022-10-14T07:29:08.138Z,99.90
2022-10-14T07:31:37.228Z,99.90
2022-10-14T07:34:05.978Z,99.90
2022-10-14T07:36:36.245Z,99.90
2022-10-14T07:39:05.903Z,99.90
2022-10-14T07:41:35.048Z,99.90
2022-10-14T07:44:09.509Z,99.90
2022-10-14T07:46:41.895Z,99.90
2022-10-14T07:49:14.400Z,99.90
2022-10-14T07:51:45.831Z,99.90
2022-10-14T07:54:18.223Z,99.90
2022-10-14T07:56:49.349Z,99.90
2022-10-14T07:59:19.271Z,99.90
2022-10-14T08:01:49.203Z,99.90
2022-10-14T08:04:18.551Z,99.90
2022-10-14T08:06:50.704Z,99.90
2022-10-14T08:09:20.726Z,99.90
2022-10-14T08:11:50.184Z,99.90
2022-10-14T08:14:18.986Z,99.90
2022-10-14T08:16:48.181Z,99.90
2022-10-14T08:19:17.142Z,99.90
2022-10-14T08:21:45.986Z,99.90
2022-10-14T08:24:16.142Z,99.90
2022-10-14T08:26:55.190Z,99.90
2022-10-14T08:29:24.702Z,99.90
2022-10-14T08:31:55.335Z,99.90
2022-10-14T08:34:24.619Z,99.90
2022-10-14T08:36:53.659Z,99.90
2022-10-14T08:39:23.921Z,99.90
2022-10-14T08:42:23.727Z,99.90
2022-10-14T08:45:08.174Z,99.90
2022-10-14T08:47:42.306Z,99.90
2022-10-14T08:50:26.874Z,99.90
2022-10-14T08:53:04.114Z,99.90
2022-10-14T08:55:44.472Z,99.90
2022-10-14T08:58:22.868Z,99.90
2022-10-14T09:00:54.429Z,99.90
2022-10-14T09:03:26.926Z,99.90
2022-10-14T09:06:02.464Z,99.90
2022-10-14T09:08:39.563Z,99.90
2022-10-14T09:11:16.115Z,99.90
2022-10-14T09:13:49.572Z,97.10
2022-10-14T09:16:23.722Z,94.10
2022-10-14T09:18:56.954Z,90.90
2022-10-14T09:21:51.662Z,85.50
2022-10-14T09:24:24.811Z,80.30
2022-10-14T09:26:59.595Z,76.50
2022-10-14T09:32:05.356Z,74.30
2022-10-14T09:34:39.983Z,67.00
2022-10-14T09:37:28.048Z,63.80
2022-10-14T09:40:02.218Z,65.20
2022-10-14T09:42:49.603Z,63.80
2022-10-14T09:45:22.815Z,64.50
2022-10-14T09:47:57.005Z,61.40
2022-10-14T09:50:32.594Z,59.60
2022-10-14T09:53:10.739Z,56.30
2022-10-14T09:55:49.366Z,54.70
2022-10-14T09:58:28.144Z,54.50
2022-10-14T10:01:00.932Z,53.90
2022-10-14T10:03:33.832Z,50.50
2022-10-14T10:06:07.803Z,43.50
2022-10-14T10:08:40.359Z,42.50
2022-10-14T10:11:14.067Z,40.70
2022-10-14T10:13:46.986Z,39.90
2022-10-14T10:16:26.266Z,39.10
2022-10-14T10:18:57.502Z,39.50
2022-10-14T10:21:30.174Z,36.20
2022-10-14T10:24:01.171Z,37.40
2022-10-14T10:26:33.610Z,37.20
2022-10-14T10:29:06.799Z,37.70
2022-10-14T10:31:58.282Z,39.10
2022-10-14T10:35:12.204Z,38.20
2022-10-14T10:37:54.973Z,37.30
2022-10-14T10:40:36.119Z,35.50
2022-10-14T10:43:39.349Z,37.20
2022-10-14T10:46:52.752Z,37.00
2022-10-14T10:49:52.107Z,34.20
2022-10-14T10:52:36.346Z,34.80
2022-10-14T10:55:19.447Z,33.40
2022-10-14T10:58:07.476Z,33.70
2022-10-14T11:00:49.791Z,33.30
2022-10-14T11:03:55.138Z,42.40
2022-10-14T11:06:49.491Z,31.60
2022-10-14T11:09:53.137Z,32.50
2022-10-14T11:12:33.077Z,30.70
2022-10-14T11:15:25.265Z,32.20
2022-10-14T11:18:03.758Z,30.50
2022-10-14T11:20:49.091Z,29.20
2022-10-14T11:23:57.243Z,28.80
2022-10-14T11:26:49.289Z,29.70
2022-10-14T11:29:46.368Z,27.90
2022-10-14T11:32:24.767Z,29.50
2022-10-14T11:35:13.638Z,28.40
2022-10-14T11:38:00.096Z,28.90
2022-10-14T11:40:39.324Z,29.70
2022-10-14T11:43:26.669Z,27.80
2022-10-14T11:46:02.003Z,26.20
2022-10-14T11:48:40.995Z,24.60
2022-10-14T11:51:20.352Z,22.90
2022-10-14T11:54:05.162Z,22.90
2022-10-14T11:56:43.785Z,24.30
2022-10-14T11:59:41.348Z,23.70
2022-10-14T12:02:39.375Z,22.70
2022-10-14T12:05:21.209Z,22.40
2022-10-14T12:08:07.361Z,23.20
2022-10-14T12:10:45.634Z,24.80
2022-10-14T12:13:21.768Z,26.30
2022-10-14T12:15:54.459Z,24.60
2022-10-14T12:18:24.054Z,31.70
2022-10-14T12:21:00.513Z,24.80
2022-10-14T12:23:38.285Z,24.80
2022-10-14T12:26:18.153Z,25.20
2022-10-14T12:28:48.448Z,23.50
2022-10-14T12:31:38.290Z,24.00
2022-10-14T12:34:33.182Z,24.90
2022-10-14T12:37:52.830Z,25.00
2022-10-14T12:40:31.308Z,24.50
2022-10-14T12:43:26.295Z,25.30
2022-10-14T12:46:14.485Z,26.50
2022-10-14T12:48:54.844Z,25.80
2022-10-14T12:51:27.457Z,26.10
2022-10-14T12:54:08.209Z,23.70
2022-10-14T12:56:44.321Z,24.70
2022-10-14T12:59:28.172Z,23.90
2022-10-14T13:02:00.531Z,24.00
2022-10-14T13:04:30.177Z,23.90
2022-10-14T13:07:41.590Z,22.90
2022-10-14T13:10:48.384Z,22.70
2022-10-14T13:13:52.899Z,18.30
2022-10-14T13:17:03.183Z,17.70
2022-10-14T13:19:46.830Z,19.10
2022-10-14T13:22:40.860Z,18.50
2022-10-14T13:25:22.814Z,15.40
2022-10-14T13:28:14.699Z,16.00
2022-10-14T13:31:00.244Z,13.80
2022-10-14T13:33:41.892Z,14.10
2022-10-14T13:36:20.807Z,14.10
2022-10-14T13:38:59.185Z,15.50
2022-10-14T13:41:31.444Z,15.40
2022-10-14T13:44:02.444Z,15.20
2022-10-14T13:46:40.802Z,15.90
2022-10-14T13:49:23.294Z,16.60
2022-10-14T13:51:56.629Z,14.90
2022-10-14T13:54:27.896Z,14.20
2022-10-14T14:02:47.225Z,13.30
2022-10-14T14:05:26.808Z,13.30
2022-10-14T14:08:31.731Z,13.40
2022-10-14T14:11:15.653Z,14.70
2022-10-14T14:13:59.203Z,13.20
2022-10-14T14:16:35.195Z,11.80
2022-10-14T14:19:10.047Z,12.00
2022-10-14T14:21:40.854Z,13.10
2022-10-14T14:24:19.872Z,13.80
2022-10-14T14:26:57.371Z,13.90
2022-10-14T14:29:29.565Z,13.80
2022-10-14T14:32:07.825Z,14.10
2022-10-14T14:34:40.228Z,13.20
2022-10-14T14:40:21.852Z,15.00
2022-10-14T14:45:29.300Z,16.30
2022-10-14T14:48:04.032Z,16.50
2022-10-14T14:50:37.803Z,17.40
2022-10-14T14:53:15.412Z,18.10
2022-10-14T14:56:01.055Z,18.80
2022-10-14T14:58:36.026Z,17.60
2022-10-14T15:01:08.624Z,17.50
2022-10-14T15:04:12.074Z,15.30
2022-10-14T15:06:51.130Z,13.70
2022-10-14T15:09:37.248Z,13.40
2022-10-14T15:12:17.290Z,12.70
2022-10-14T15:14:49.193Z,14.00
2022-10-14T15:17:32.356Z,14.50
2022-10-14T15:20:29.811Z,15.50
2022-10-14T15:22:58.702Z,18.10
2022-10-14T15:25:33.427Z,21.20
2022-10-14T15:28:03.898Z,24.20
2022-10-14T15:30:55.753Z,27.70
2022-10-14T15:33:27.302Z,32.20
2022-10-14T15:36:00.172Z,35.70
2022-10-14T15:41:05.168Z,44.70
2022-10-14T15:43:35.047Z,47.40
2022-10-14T15:46:21.477Z,48.20
2022-10-14T15:48:53.433Z,51.60
2022-10-14T15:51:24.697Z,57.30
2022-10-14T15:53:53.522Z,67.20
2022-10-14T15:56:23.944Z,76.10
2022-10-14T15:58:52.744Z,81.80
2022-10-14T16:01:23.931Z,90.10
2022-10-14T16:03:53.396Z,92.70
2022-10-14T16:06:24.619Z,96.30
2022-10-14T16:08:53.541Z,96.10
2022-10-14T16:11:27.716Z,96.00
2022-10-14T16:13:57.037Z,99.90
2022-10-14T16:16:34.608Z,99.90
2022-10-14T16:19:03.697Z,99.90
2022-10-14T16:21:33.265Z,99.90
2022-10-14T16:24:04.327Z,99.90
2022-10-14T16:26:34.601Z,99.90
2022-10-14T16:29:03.869Z,99.90
2022-10-14T16:31:32.801Z,99.90
2022-10-14T16:34:01.998Z,99.90
2022-10-14T16:36:31.187Z,99.90
2022-10-14T16:39:01.837Z,99.90
2022-10-14T16:41:31.396Z,99.90
2022-10-14T16:44:01.558Z,99.90
2022-10-14T16:46:44.312Z,99.90
2022-10-14T16:49:14.337Z,99.90
2022-10-14T16:51:44.366Z,99.90
2022-10-14T16:54:13.742Z,99.90
2022-10-14T16:56:56.962Z,99.90
2022-10-14T16:59:28.512Z,99.90
2022-10-14T17:01:57.766Z,99.90
2022-10-14T17:04:27.233Z,99.90
2022-10-14T17:07:07.473Z,99.90
2022-10-14T17:09:39.071Z,99.90
2022-10-14T17:12:13.003Z,99.90
2022-10-14T17:14:44.512Z,99.90
2022-10-14T17:17:14.005Z,99.90
2022-10-14T17:19:44.721Z,99.90
2022-10-14T17:22:13.820Z,99.90
2022-10-14T17:24:42.597Z,99.90
2022-10-14T17:27:11.418Z,99.90
2022-10-14T17:29:40.358Z,99.90
2022-10-14T17:32:10.636Z,99.90
2022-10-14T17:34:39.437Z,99.90
2022-10-14T17:39:42.745Z,99.90
2022-10-14T17:42:11.471Z,99.90
2022-10-14T17:44:43.761Z,99.90
2022-10-14T17:47:14.327Z,99.90
2022-10-14T17:49:43.248Z,99.90
2022-10-14T17:52:12.365Z,99.90
2022-10-14T17:54:41.161Z,99.90
2022-10-14T17:57:10.009Z,99.90
2022-10-14T17:59:38.728Z,99.90
2022-10-14T18:02:09.755Z,99.90
2022-10-14T18:04:40.079Z,99.90
2022-10-14T18:07:08.809Z,99.90
2022-10-14T18:09:37.669Z,99.90
2022-10-14T18:12:09.157Z,99.90
2022-10-14T18:14:40.814Z,99.90
2022-10-14T18:17:12.489Z,99.90
2022-10-14T18:19:46.006Z,99.90
2022-10-14T18:22:17.281Z,99.90
2022-10-14T18:24:46.080Z,99.90
2022-10-14T18:27:14.839Z,99.90
2022-10-14T18:29:43.643Z,99.90
2022-10-14T18:32:12.468Z,99.90
2022-10-14T18:34:42.628Z,99.90
2022-10-14T18:37:11.881Z,99.90
2022-10-14T18:39:40.626Z,99.90
2022-10-14T18:42:09.450Z,99.90
2022-10-14T18:44:38.176Z,99.90
2022-10-14T18:47:07.598Z,99.90
2022-10-14T18:49:39.913Z,99.90
2022-10-14T18:52:11.369Z,99.90
2022-10-14T18:54:40.298Z,99.90
2022-10-14T18:57:10.182Z,99.90
2022-10-14T18:59:38.972Z,99.90
2022-10-14T19:02:10.080Z,99.90
2022-10-14T19:04:38.843Z,99.90
2022-10-14T19:07:08.561Z,99.90
2022-10-14T19:09:38.772Z,99.90
2022-10-14T19:12:22.107Z,99.90
2022-10-14T19:14:50.999Z,99.90
2022-10-14T19:17:19.729Z,99.90
2022-10-14T19:19:48.589Z,99.90
2022-10-14T19:22:17.357Z,99.90
2022-10-14T19:24:50.204Z,99.90
2022-10-14T19:27:19.078Z,99.90
2022-10-14T19:29:48.135Z,99.90
2022-10-14T19:32:17.015Z,99.90
2022-10-14T19:34:47.448Z,99.90
2022-10-14T19:37:16.501Z,99.90
2022-10-14T19:39:46.816Z,99.90
2022-10-14T19:42:15.626Z,99.90
2022-10-14T19:44:44.587Z,99.90
2022-10-14T19:47:13.422Z,99.90
2022-10-14T19:49:42.391Z,99.90
2022-10-14T19:52:11.266Z,99.90
2022-10-14T19:54:40.215Z,99.90
2022-10-14T19:57:10.469Z,99.90
2022-10-14T19:59:39.362Z,99.90
2022-10-14T20:02:08.236Z,99.90
2022-10-14T20:04:37.097Z,99.90
2022-10-14T20:07:05.934Z,99.90
2022-10-14T20:09:34.872Z,99.90
2022-10-14T20:12:04.323Z,99.90
2022-10-14T20:14:35.957Z,99.90
2022-10-14T20:17:05.103Z,99.90
2022-10-14T20:19:34.230Z,99.90
2022-10-14T20:22:03.119Z,99.90
2022-10-14T20:24:32.441Z,99.90
2022-10-14T20:27:01.820Z,99.90
2022-10-14T20:29:30.675Z,99.90
2022-10-14T20:32:02.234Z,99.90
2022-10-14T20:34:31.571Z,99.90
2022-10-14T20:37:00.443Z,99.90
2022-10-14T20:39:29.387Z,99.90
2022-10-14T20:41:59.715Z,99.90
2022-10-14T20:44:28.534Z,99.90
2022-10-14T20:46:58.621Z,99.90
2022-10-14T20:49:28.855Z,99.90
2022-10-14T20:51:58.163Z,99.90
2022-10-14T20:54:27.506Z,99.90
2022-10-14T20:56:56.942Z,99.90
2022-10-14T20:59:26.245Z,99.90
2022-10-14T21:01:55.423Z,99.90
2022-10-14T21:04:24.215Z,99.90
2022-10-14T21:06:55.116Z,99.90
2022-10-14T21:09:24.176Z,99.90
2022-10-14T21:14:23.095Z,99.90
2022-10-14T21:16:52.026Z,99.90
2022-10-14T21:19:22.096Z,99.90
2022-10-14T21:21:51.098Z,99.90
2022-10-14T21:24:22.425Z,99.90
2022-10-14T21:26:51.559Z,99.90
2022-10-14T21:29:21.751Z,99.90
2022-10-14T21:31:51.221Z,99.90
2022-10-14T21:34:20.201Z,99.90
2022-10-14T21:36:49.044Z,99.90
2022-10-14T21:39:20.320Z,99.90
2022-10-14T21:41:49.205Z,99.90
2022-10-14T21:44:21.330Z,99.90
2022-10-14T21:46:50.993Z,99.90
2022-10-14T21:49:19.905Z,99.90
2022-10-14T21:51:48.805Z,99.90
2022-10-14T21:54:17.945Z,99.90
2022-10-14T21:56:48.823Z,99.90
2022-10-14T21:59:19.689Z,99.90
2022-10-14T22:01:49.313Z,99.90
2022-10-14T22:04:18.573Z,99.90
2022-10-14T22:06:47.850Z,99.90
2022-10-14T22:09:16.990Z,99.90
2022-10-14T22:11:47.943Z,99.90
2022-10-14T22:14:31.205Z,99.90
2022-10-14T22:17:00.075Z,99.90
2022-10-14T22:19:28.894Z,99.90
2022-10-14T22:21:59.197Z,99.90
2022-10-14T22:24:28.202Z,99.90
2022-10-14T22:26:58.226Z,99.90
2022-10-14T22:29:27.619Z,99.90
2022-10-14T22:31:56.429Z,99.90
2022-10-14T22:34:25.234Z,99.90
2022-10-14T22:36:54.065Z,99.90
2022-10-14T22:39:24.893Z,99.90
2022-10-14T22:41:53.798Z,99.90
2022-10-14T22:44:24.298Z,99.90
2022-10-14T22:46:54.556Z,99.90
2022-10-14T22:49:23.467Z,99.90
2022-10-14T22:51:55.916Z,99.90
2022-10-14T22:54:25.934Z,99.90
2022-10-14T22:56:55.041Z,99.90
2022-10-14T22:59:25.296Z,99.90
2022-10-14T23:01:54.153Z,99.90
2022-10-14T23:04:22.903Z,99.90
2022-10-14T23:06:51.932Z,99.90
2022-10-14T23:09:20.722Z,99.90
2022-10-14T23:11:49.515Z,99.90
2022-10-14T23:14:18.543Z,99.90
2022-10-14T23:16:48.725Z,99.90
2022-10-14T23:19:17.504Z,99.90
2022-10-14T23:21:46.265Z,99.90
2022-10-14T23:24:15.170Z,99.90
2022-10-14T23:26:43.960Z,99.90
2022-10-14T23:29:13.445Z,99.90
2022-10-14T23:31:43.489Z,99.90
2022-10-14T23:34:15.625Z,99.90
2022-10-14T23:36:45.089Z,99.90
2022-10-14T23:39:14.380Z,99.90
2022-10-14T23:41:43.512Z,99.90
2022-10-14T23:44:13.180Z,99.90
2022-10-14T23:46:42.172Z,99.90
2022-10-14T23:49:25.412Z,99.90
2022-10-14T23:51:55.430Z,99.90
2022-10-14T23:54:25.041Z,99.90
2022-10-14T23:56:53.883Z,99.90
2022-10-14T23:59:22.777Z,99.90
